Flight Track Log - Related Links

Times and Time Zones

All times are in EDT time to prevent confusion due to time zone crossing. See the UAL5911 flight status page for this flight to view local times or setup timezone preferences in your user account.

Time Position Orientation Groundspeed Altitude Reporting Facility
EDT Latitude Longitude Course Direction KTS MPH feet Rate Location/Type
Tue 04:03:05 PM 40.6928 -89.6556 62° Northeast 164 189 2,600  Level Chicago Center
Tue 04:04:07 PM 40.7644 -89.6458 North 218 251 4,900 2,274 Climbing Chicago Center
Tue 04:05:09 PM 40.8436 -89.6336 North 261 300 7,300 2,448 Climbing Chicago Center
Tue 04:06:00 PM 40.9874 -89.6153 14° North  Level FlightAware Approximate
Tue 04:06:12 PM 40.9289 -89.6211 North 291 335 10,000  Level Chicago Center
Tue 04:07:00 PM 41.0713 -89.5965 North  Level FlightAware Approximate
Tue 04:07:13 PM 41.0214 -89.6069 North 316 364 11,500  Level Chicago Center
Tue 04:08:00 PM 41.1514 -89.5798 62° Northeast  Level FlightAware Approximate
Tue 04:08:15 PM 41.1275 -89.5914 North 369 425 12,600  Level Chicago Center
Tue 04:09:17 PM 41.2186 -89.4767 43° Northeast 412 474 13,000 194 Climbing Chicago Center
Tue 04:10:19 PM 41.2644 -89.3294 67° East 427 491 13,000 -145 Level Chicago Center
Tue 04:11:21 PM 41.3197 -89.1933 62° Northeast 420 483 12,700 -581 Descending Chicago Center
Tue 04:12:23 PM 41.3717 -89.0575 63° Northeast 420 483 11,800 -823 Descending Chicago Center
Tue 04:13:25 PM 41.4264 -88.9231 61° Northeast 415 478 11,000 -387 Descending Chicago Center
Tue 04:14:27 PM 41.4900 -88.7650 62° Northeast 405 466 11,000  Level Chicago Center
Tue 04:15:29 PM 41.5408 -88.6339 63° Northeast 399 459 11,000  Level Chicago Center
Tue 04:16:32 PM 41.6006 -88.5133 56° Northeast 393 452 11,000  Level Chicago Center
Tue 04:17:34 PM 41.6731 -88.4028 49° Northeast 391 450 11,000  Level Chicago Center
Tue 04:18:36 PM 41.7478 -88.2914 48° Northeast 398 458 11,000  Level Chicago Center
Tue 04:19:38 PM 41.8250 -88.1806 47° Northeast 404 465 11,000  Level Chicago Center
Tue 04:20:52 PM 41.9333 -88.1000 29° Northeast 340 391 11,000  Level Chicago TRACON
Tue 04:21:52 PM 42.0333 -88.0667 14° North 347 399 11,000 -500 Level Chicago TRACON
Tue 04:22:52 PM 42.1167 -88.0333 17° North 344 396 10,000 -1,250 Descending Chicago TRACON
Tue 04:23:52 PM 42.1167 -87.9167 90° East 312 359 8,500 -1,450 Descending Chicago TRACON
Tue 04:24:52 PM 42.1167 -87.8000 90° East 300 345 7,100 -1,367 Descending Chicago TRACON
Tue 04:26:00 PM 42.0478 -87.8544 180° South  Level Estimated
Tue 04:26:52 PM 42.1000 -87.6000 180° South 274 315 4,400  Level Chicago TRACON
Tue 04:27:53 PM 42.1000 -87.5000 90° East 254 292 4,000 -200 Descending Chicago TRACON
Tue 04:28:52 PM 42.0667 -87.4333 124° Southeast 243 280 4,000  Level Chicago TRACON
Tue 04:29:52 PM 42.0167 -87.4167 166° South 206 237 4,000  Level Chicago TRACON
Tue 04:30:53 PM 42.0000 -87.4833 251° West 177 204 4,000  Level Chicago TRACON
Tue 04:31:53 PM 42.0000 -87.5500 270° West 179 206 4,000  Level Chicago TRACON
Tue 04:32:53 PM 42.0000 -87.6167 270° West 175 201 4,000  Level Chicago TRACON
Tue 04:33:53 PM 42.0000 -87.6833 270° West 177 204 4,000 -500 Level Chicago TRACON
Tue 04:34:53 PM 42.0000 -87.7500 270° West 186 214 3,000 -1,000 Descending Chicago TRACON
Tue 04:35:53 PM 42.0000 -87.8167 270° West 164 189 2,000 -850 Descending Chicago TRACON
Tue 04:36:53 PM 42.0000 -87.8667 270° West 132 152 1,300 -700 Descending Chicago TRACON

Login

Don't have an account? Register now (free) for customized features, flight alerts, and more!